x

Santa Monica Basin - 33nm Wsw Of Santa Monica, Ca (46025) Wave Buoy

12:50 - Fri 26th May 2017 All times are PDT. -7 hours from GMT.

  • Sig Wave height 2.3ft
  • Swell Direction
  • Peak Period 13s
  • Average Period 8s
  • Wind
    7mph, 9mph gusts
  • Sea Temp 63°f
  • Air Temp 61°f
  • Sea Pressure 1016.1mb
  • Santa Monica Basin - 33nm Wsw Of Santa Monica, Ca
  • Santa Monica Basin - 33nm Wsw Of Santa Monica, Ca

More Historic Weather Station data

Upgrade to MSW Pro to gain access to the past 30 days of data for over 8000 Wavebouys and Weather Stations around the globe.

Join Pro

Comparision Forecast

View Surf forecast
   
ven. 05/26 12:50 2.5ft 13s 8s 7 9 mph 1016.1mb 63f 61f
12:40 2.5ft  -  8s 7 9 mph 1016mb 63f 61f
12:30  -   -   -  7 9 mph 1016mb 63f 61f
12:20  -   -   -  7 9 mph 1016mb 63f 61f
12:10  -   -   -  7 9 mph 1016mb - 61f
12:00  -   -   -  7 9 mph 1015.9mb 62f 61f
11:50 2.5ft 14s 8s 7 9 mph 1015.9mb 62f 61f
11:40 2.5ft  -  8s 7 9 mph 1015.8mb 62f 61f
11:30  -   -   -  7 7 mph 1015.6mb 62f 61f
11:20  -   -   -  7 7 mph 1015.6mb 62f 61f
11:10  -   -   -  7 7 mph 1015.5mb 62f 61f
11:00  -   -   -  7 9 mph 1015.5mb 62f 61f
10:30  -   -   -  4 4 mph 1015.4mb 62f 62f
10:20  -   -   -  4 4 mph 1015.3mb 62f 62f
10:10  -   -   -  4 4 mph 1015.3mb 62f 62f
10:00  -   -   -  4 4 mph 1015.3mb 62f 62f
9:50 2.5ft 15s 8s 2 4 mph 1015.1mb 62f 62f
9:40 2.5ft  -  8s 4 4 mph 1015.1mb 62f 62f
9:30  -   -   -  4 7 mph 1015mb 62f 62f
9:20  -   -   -  4 7 mph 1015mb 62f 62f
9:10  -   -   -  4 4 mph 1015mb 62f 62f
9:00  -   -   -  4 4 mph 1014.9mb 62f 62f
8:50 2.5ft 15s 8s 4 7 mph 1014.8mb 62f 62f
8:40 2.5ft  -  8s 4 7 mph 1014.6mb 62f 62f
8:30  -   -   -  7 9 mph 1014.5mb - 61f
8:20  -   -   -  7 9 mph 1014.5mb 62f 61f
8:10  -   -   -  9 11 mph 1014.4mb 62f 61f
8:00  -   -   -  7 9 mph 1014.3mb 62f 61f
7:50 2.5ft 12s 8s 7 9 mph 1014.1mb 62f 61f
7:40 2.5ft  -  8s 7 7 mph 1014mb 62f 61f
7:30  -   -   -  7 7 mph 1014mb 62f 61f
7:20  -   -   -  7 7 mph 1014mb 62f 61f
7:10  -   -   -  7 9 mph 1014mb 62f 61f
7:00  -   -   -  4 7 mph 1013.9mb 62f 61f
6:50 2.5ft 15s 9s 2 4 mph 1013.9mb 62f 61f
6:40  -   -   -   -  0 mph 1013.9mb 62f 61f
6:30  -   -   -   -  2 mph 1013.8mb 62f 61f
6:20  -   -   -  2 2 mph 1013.8mb 62f 61f
6:10  -   -   -  2 2 mph 1013.5mb 62f 61f
6:00  -   -   -  2 4 mph 1013.5mb 62f 61f
5:50 2.5ft 14s 8s  -  2 mph 1013.5mb 62f 61f
5:40 2.5ft  -  8s  -  2 mph 1013.5mb 62f 61f
5:30  -   -   -  2 4 mph 1013.4mb 62f 61f
5:20  -   -   -  4 4 mph 1013.4mb 62f 61f
5:10  -   -   -  2 4 mph 1013.3mb 62f 61f
5:00  -   -   -  2 4 mph 1013.3mb 62f 61f
4:50 2.5ft 14s 8s 2 4 mph 1013.3mb 62f 61f
4:40 2.5ft  -  8s 2 4 mph 1013.3mb 62f 61f
4:30  -   -   -  2 4 mph 1013.1mb 62f 61f
4:20  -   -   -  4 7 mph 1013.1mb 62f 61f
4:10  -   -   -  4 9 mph 1013mb 62f 61f
4:00  -   -   -  9 9 mph 1013mb 62f 61f
3:50 2.5ft 11s 8s 9 9 mph 1012.9mb 62f 61f
3:40 2.5ft  -  8s 7 9 mph 1012.9mb 62f 61f
3:30  -   -   -  4 7 mph 1012.9mb 62f 61f
3:20  -   -   -  4 4 mph 1012.9mb 62f 61f
3:10  -   -   -  4 4 mph 1013mb 62f 61f
3:00  -   -   -  2 4 mph 1013mb - 61f
2:50 3ft 13s 9s 4 4 mph 1013mb 62f 61f
2:40 3ft  -  9s 4 7 mph 1013mb 62f 61f
2:30  -   -   -  4 7 mph 1013mb 62f 61f
2:20  -   -   -  4 7 mph 1013mb 62f 61f
2:10  -   -   -  7 9 mph 1013mb 62f 61f
2:00  -   -   -  7 9 mph 1012.9mb 62f 61f
1:50 2.5ft 14s 8s 7 7 mph 1013mb 62f 61f
1:40  -   -   -  7 9 mph 1012.9mb 62f 61f
1:30  -   -   -  7 7 mph 1012.9mb 62f 61f
1:20  -   -   -  7 7 mph 1013mb 62f 61f
1:10  -   -   -  7 9 mph 1012.9mb 62f 61f
1:00  -   -   -  7 9 mph 1012.9mb 62f 61f
12:50 2.5ft 13s 8s 7 9 mph 1012.9mb 62f 61f
12:40 2.5ft  -  8s 7 9 mph 1012.9mb 62f 61f
12:30  -   -   -  7 9 mph 1012.9mb 62f 61f
12:20  -   -   -  7 9 mph 1012.9mb 62f 61f
12:10  -   -   -  9 11 mph 1012.9mb 62f 61f
12:00  -   -   -  7 9 mph 1012.9mb 62f 61f
jeu. 05/25 11:50 2.5ft 13s 7s 7 9 mph 1012.9mb 62f 61f
11:40 2.5ft  -  7s 7 9 mph 1012.9mb 62f 61f
11:30  -   -   -  9 9 mph 1012.8mb 62f 61f
11:20  -   -   -  9 11 mph 1012.8mb 62f 61f
11:10  -   -   -  9 11 mph 1012.6mb 62f 61f
11:00  -   -   -  9 11 mph 1012.5mb 62f 61f
10:50 3ft 14s 8s 9 11 mph 1012.5mb 62f 61f
10:40  -   -   -  9 11 mph 1012.5mb 62f 61f
10:30  -   -   -  9 13 mph 1012.4mb - 61f
10:20  -   -   -  9 11 mph 1012.3mb 63f 61f
10:10  -   -   -  9 11 mph 1012.1mb 63f 61f
10:00  -   -   -  9 11 mph 1012mb 63f 61f
9:50 2.5ft 13s 7s 9 11 mph 1011.9mb 63f 61f
9:40  -   -   -  9 11 mph 1011.9mb 63f 61f
9:30  -   -   -  11 11 mph 1011.8mb 63f 61f
9:20  -   -   -  9 11 mph 1011.5mb 63f 61f
9:10  -   -   -  9 11 mph 1011.5mb 63f 61f
9:00  -   -   -  11 11 mph 1011.5mb 63f 61f
8:50 2.5ft 14s 9s 9 11 mph 1011.3mb 63f 61f
8:40 2.5ft  -  9s 9 11 mph 1011.3mb 63f 61f
8:30  -   -   -  9 11 mph 1011.3mb 63f 61f
8:20  -   -   -  9 11 mph 1011mb 63f 61f
8:10  -   -   -  9 11 mph 1011mb 63f 61f
8:00  -   -   -  9 11 mph 1010.8mb 63f 61f
7:50 3ft 13s 9s 9 11 mph 1010.8mb 63f 61f
7:40 3ft  -  9s 9 11 mph 1010.8mb 63f 61f
7:30  -   -   -  9 11 mph 1010.8mb 63f 61f
7:20  -   -   -  9 11 mph 1010.8mb 63f 61f
7:10  -   -   -  9 11 mph 1010.8mb 63f 61f
7:00  -   -   -  9 11 mph 1010.6mb 63f 61f
6:50 3ft 15s 10s 9 11 mph 1010.5mb 63f 61f
6:40  -   -   -  9 11 mph 1010.5mb 63f 61f
6:30  -   -   -  9 11 mph 1010.5mb 63f 61f
6:20  -   -   -  9 11 mph 1010.6mb 63f 61f
6:10  -   -   -  9 11 mph 1010.6mb 63f 61f
6:00  -   -   -  9 11 mph 1010.8mb 63f 61f
5:50 3ft 13s 10s 9 11 mph 1010.8mb 63f 61f
5:40 3ft  -  10s 9 11 mph 1010.8mb 63f 61f
5:30  -   -   -  7 9 mph 1011mb 63f 61f
5:20  -   -   -  7 9 mph 1011mb 63f 61f
5:10  -   -   -  7 9 mph 1011.1mb 63f 61f
5:00  -   -   -  7 9 mph 1011.1mb 63f 61f
4:50 2.5ft 14s 9s 7 9 mph 1011.3mb 63f 61f
4:40 2.5ft  -  9s 4 7 mph 1011.3mb 63f 61f
4:30  -   -   -  4 7 mph 1011.3mb 63f 61f
4:20  -   -   -  4 7 mph 1011.4mb 63f 61f
4:10  -   -   -  4 9 mph 1011.4mb 63f 61f
4:00  -   -   -  4 7 mph 1012mb 63f 61f
3:50 2.5ft 14s 9s 4 7 mph 1011.6mb 63f 61f
3:40  -   -   -  2 7 mph 1011.8mb 63f 61f
3:30  -   -   -  2 4 mph 1011.8mb 63f 62f
3:20  -   -   -   -  2 mph 1011.8mb 63f 62f
3:10  -   -   -  2 4 mph 1011.9mb 63f 61f
3:00  -   -   -   -  2 mph 1011.9mb 63f 62f
2:50 2.5ft 12s 9s 2 2 mph 1011.9mb 63f 62f
2:40  -   -   -   -  2 mph 1011.9mb 63f 62f
2:30  -   -   -  2 2 mph 1012mb 63f 62f
2:20  -   -   -   -  2 mph 1012mb 63f 62f
2:10  -   -   -  2 2 mph 1012.1mb 63f 62f
2:00  -   -   -   -  2 mph 1012.1mb 63f 62f
1:50 2.5ft  -  8s  -  2 mph 1012.1mb - 62f
1:40 2.5ft 11s  -   -  mph - 63f -
1:30  -   -   -   -  2 mph 1012.1mb 63f 61f
1:20  -   -   -   -  2 mph 1012.1mb 63f 61f
1:10  -   -   -   -  2 mph 1012.3mb 63f 61f
1:00  -   -   -  2 2 mph 1012.1mb 63f 61f
12:50 2.5ft 14s 8s 2 4 mph 1012.1mb 63f 60f
12:40 2.5ft  -  8s 4 7 mph 1012.3mb 63f 60f
12:30  -   -   -  4 7 mph 1012.3mb 63f 60f
12:20  -   -   -  7 9 mph 1012.3mb 63f 60f
12:10  -   -   -  7 9 mph 1012.4mb 63f 60f
12:00  -   -   -  7 7 mph 1012.4mb 63f 60f
11:50 2.5ft 14s 7s 4 7 mph 1012.3mb 63f 60f
11:40 2.5ft  -  7s 4 7 mph 1012.3mb 63f 60f
11:30  -   -   -  2 4 mph 1012.1mb 63f 60f
11:20  -   -   -  2 2 mph 1012mb 63f 60f
11:10  -   -   -  2 4 mph 1012mb 63f 60f
11:00  -   -   -  4 7 mph 1012mb 62f 60f
10:50 3ft 12s 7s 7 7 mph 1012mb 62f 60f
10:40  -   -   -  7 9 mph 1011.9mb 62f 60f
10:30  -   -   -  7 9 mph 1011.9mb 62f 60f
10:20  -   -   -  9 11 mph 1011.9mb 62f 60f
10:10  -   -   -  7 11 mph 1011.9mb 62f 60f
10:00  -   -   -  7 9 mph 1011.9mb 62f 60f
9:50 2.5ft 13s 7s 4 9 mph 1011.8mb 62f 60f
9:40 2.5ft  -  7s 2 4 mph 1011.6mb 62f 60f
9:30  -   -   -  4 7 mph 1011.6mb 62f 60f
9:20  -   -   -  2 4 mph 1011.6mb 62f 60f
9:10  -   -   -  2 4 mph 1011.5mb 62f 60f
9:00  -   -   -  2 4 mph 1011.5mb 62f 60f
8:50 2.5ft 12s 7s  -  2 mph 1011.5mb 62f 60f
8:40  -   -   -  2 4 mph 1011.4mb 62f 60f
8:30  -   -   -  2 4 mph 1011.3mb 62f 60f
8:20  -   -   -   -  2 mph 1011.3mb 62f 60f
8:10  -   -   -  2 4 mph 1011.1mb 62f 60f
8:00  -   -   -  2 4 mph 1011mb 62f 60f
7:50 3ft 12s 8s 2 7 mph 1011mb 62f 59f
7:40 3ft  -  8s 4 7 mph 1011mb 62f 59f
7:30  -   -   -  4 7 mph 1011mb 62f 59f
7:20  -   -   -  4 7 mph 1010.8mb 62f 59f
7:10  -   -   -  4 9 mph 1010.8mb 62f 59f
7:00  -   -   -  2 4 mph 1010.6mb 62f 59f
6:50 2.5ft 13s 6s 2 4 mph 1010.8mb - 59f
6:40 2.5ft  -  6s 2 4 mph 1010.8mb 62f 59f
6:30  -   -   -  2 4 mph 1010.8mb 62f 59f
6:20  -   -   -   -  2 mph 1010.6mb 62f 59f
6:10  -   -   -  2 7 mph 1010.6mb 62f 59f
6:00  -   -   -  2 7 mph 1010.5mb 62f 59f
5:50 2.5ft 14s 7s 2 4 mph 1010.5mb 62f 59f
5:40 2.5ft  -  7s 2 7 mph 1010.5mb 62f 59f
5:30  -   -   -  4 7 mph 1010.5mb 62f 59f
5:20  -   -   -  2 4 mph 1010.6mb 62f 59f
5:10  -   -   -  4 4 mph 1010.6mb 62f 59f
5:00  -   -   -  2 4 mph 1010.6mb 62f 59f
4:50 2.5ft 13s 6s 4 7 mph 1010.6mb 63f 59f
4:40 2.5ft  -  6s 4 7 mph 1010.6mb 63f 59f
4:30  -   -   -  2 4 mph 1010.5mb 63f 59f
4:20  -   -   -  4 7 mph 1010.5mb 62f 59f
4:10  -   -   -  4 9 mph 1010.5mb 63f 59f
4:00  -   -   -  7 9 mph 1010.5mb 63f 59f
3:50 2.5ft 14s 6s 4 7 mph 1010.5mb 63f 59f
3:40 2.5ft  -  6s 7 11 mph 1010.5mb 63f 59f
3:30  -   -   -  4 9 mph 1010.5mb - 59f
3:20  -   -   -  4 7 mph 1010.5mb 63f 59f
3:10  -   -   -  4 7 mph 1010.5mb 63f 59f
3:00  -   -   -  7 9 mph 1010.5mb 63f 59f
2:50 3ft 14s 6s 7 9 mph 1010.6mb 63f 59f
2:40 3ft  -  6s 7 9 mph 1010.5mb 63f 59f
2:30  -   -   -  7 9 mph 1010.6mb 63f 59f
2:20  -   -   -  7 9 mph 1010.5mb 63f 59f
2:10  -   -   -  7 9 mph 1010.8mb 63f 59f
2:00  -   -   -  7 9 mph 1010.8mb 63f 59f
1:50 3.5ft 14s 7s 4 9 mph 1010.8mb 63f 59f
1:40 3.5ft  -  7s 2 4 mph 1010.9mb 63f 59f
1:30  -   -   -  4 9 mph 1010.8mb 63f 59f
1:20  -   -   -  7 9 mph 1010.8mb 63f 59f
1:10  -   -   -  7 9 mph 1010.8mb 63f 59f
1:00  -   -   -  7 9 mph 1010.8mb 63f 59f
12:50 3.5ft 15s 6s 9 11 mph 1010.8mb 63f 59f
12:40  -   -   -  9 11 mph 1010.8mb 63f 59f
12:30  -   -   -  9 13 mph 1010.8mb 63f 59f
12:20  -   -   -  9 11 mph 1010.8mb 63f 59f
12:10  -   -   -  7 11 mph 1010.6mb 63f 59f
12:00  -   -   -  4 11 mph 1010.5mb 63f 59f
mer. 05/24 11:50 3.5ft 14s 5s 2 4 mph 1010.5mb 63f 59f
11:40 3.5ft  -  5s 2 4 mph 1010.5mb 63f 59f
11:30  -   -   -  4 7 mph 1010.5mb 63f 59f
11:20  -   -   -  4 9 mph 1010.5mb 63f 59f
11:10  -   -   -  7 11 mph 1010.5mb 63f 59f
11:00  -   -   -  9 11 mph 1010.5mb 63f 59f
10:50 3.5ft 14s 6s 11 16 mph 1010.5mb 63f 59f
10:40 3.5ft  -  6s 13 16 mph 1010.3mb 63f 59f
10:30  -   -   -  11 13 mph 1010.1mb 63f 60f
10:20  -   -   -  9 11 mph 1010mb 63f 60f
10:10  -   -   -  9 11 mph 1009.9mb 63f 60f
10:00  -   -   -  11 13 mph 1009.8mb 63f 59f
9:50 3.5ft 14s 6s 9 13 mph 1009.9mb 63f 59f
9:40 3.5ft  -  6s 11 16 mph 1009.9mb 63f 59f
9:30  -   -   -  11 18 mph 1009.8mb 63f 59f
9:20  -   -   -  9 13 mph 1009.8mb 63f 59f
9:10  -   -   -  9 13 mph 1009.6mb 63f 59f
9:00  -   -   -  7 13 mph 1009.5mb 63f 59f
8:50 3.5ft 15s 6s 11 13 mph 1009.5mb 63f 59f
8:40 3.5ft  -  6s 11 16 mph 1009.4mb 63f 59f
8:30  -   -   -  9 18 mph 1009.3mb 63f 59f
8:20  -   -   -  9 13 mph 1009.4mb 63f 58f
8:10  -   -   -  9 11 mph 1009.4mb 63f 58f
8:00  -   -   -  11 16 mph 1009.3mb 63f 58f
7:50 3.5ft 15s 6s 11 18 mph 1009.3mb 63f 58f
7:40 3.5ft  -  6s 13 18 mph 1009.4mb 63f 58f
7:30  -   -   -  13 18 mph 1009.3mb 63f 59f
7:20  -   -   -  11 16 mph 1009.3mb 63f 59f
7:10  -   -   -  11 13 mph 1009.3mb 63f 59f
7:00  -   -   -  11 16 mph 1009.4mb 63f 58f
6:50 2.5ft 14s 5s 13 16 mph 1009.3mb 63f 58f
6:40  -   -   -  11 16 mph 1009.4mb 63f 58f
6:30  -   -   -  11 16 mph 1009.4mb 63f 58f
6:20  -   -   -  13 18 mph 1009.4mb 63f 59f
6:10  -   -   -  11 16 mph 1009.5mb 63f 58f
6:00  -   -   -  11 13 mph 1009.5mb 63f 58f
5:50 2.5ft 14s 5s 11 16 mph 1009.6mb 63f 58f
5:40  -   -   -  11 16 mph 1009.6mb 63f 58f
5:30  -   -   -  11 16 mph 1009.6mb 63f 58f
5:20  -   -   -  13 16 mph 1009.8mb 63f 58f
5:10  -   -   -  13 18 mph 1009.8mb 63f 58f
5:00  -   -   -  11 16 mph 1010mb 63f 58f
4:50 2.5ft 15s 6s 11 16 mph 1010.1mb 63f 58f
4:40 2.5ft  -  6s 9 13 mph 1010.1mb 63f 58f
4:30  -   -   -  11 13 mph 1010.1mb 63f 58f
4:20  -   -   -  9 13 mph 1010.1mb 63f 58f
4:10  -   -   -  9 13 mph 1010.1mb 63f 58f
4:00  -   -   -  11 13 mph 1010.3mb 63f 58f
3:50 3ft 15s 7s 11 13 mph 1010.5mb 63f 58f
3:40  -   -   -  9 13 mph 1010.5mb 63f 58f
3:30  -   -   -  9 13 mph 1010.5mb 63f 58f
3:20  -   -   -  7 11 mph 1010.8mb 63f 58f
3:10  -   -   -  9 13 mph 1010.8mb 63f 58f
3:00  -   -   -  9 11 mph 1010.9mb 63f 58f
2:50 2.5ft 14s 6s 11 13 mph 1011mb 63f 58f
2:40 2.5ft  -  6s 11 16 mph 1011.3mb 63f 58f
2:30  -   -   -  11 13 mph 1011.3mb 63f 58f
2:20  -   -   -  11 16 mph 1011.5mb 63f 59f
2:10  -   -   -  9 11 mph 1011.8mb 63f 59f
2:00  -   -   -  7 9 mph 1011.5mb 63f 59f
1:50 2.5ft 15s 6s 4 7 mph 1011.5mb 63f 59f
1:40 2.5ft  -  6s 2 7 mph 1011.6mb 63f 59f
1:30  -   -   -  2 4 mph 1011.5mb 63f 59f
1:20  -   -   -  2 4 mph 1011.4mb 63f 59f
1:10  -   -   -  4 7 mph 1011.6mb 63f 59f
1:00  -   -   -  4 7 mph 1011.9mb 63f 59f
12:50 2.5ft 14s 6s 2 4 mph 1011.9mb 63f 58f
12:40 2.5ft  -  6s 4 7 mph 1011.6mb 63f 58f
12:30  -   -   -  4 7 mph 1012mb 63f 58f
12:20  -   -   -  4 7 mph 1011.8mb 63f 58f
12:10  -   -   -  4 7 mph 1011.9mb 63f 58f
12:00  -   -   -  7 9 mph 1012mb 63f 58f
11:50 3ft 14s 6s 7 9 mph 1012.1mb 63f 58f
11:40 3ft  -  6s 7 9 mph 1012.1mb 63f 58f
11:30  -   -   -  4 7 mph 1012.1mb 63f 57f
11:20  -   -   -  4 7 mph 1012mb 63f 57f
11:10  -   -   -  4 7 mph 1012mb 63f 57f
11:00  -   -   -  4 7 mph 1012.3mb 63f 57f
10:50 3.5ft 14s 6s 7 9 mph 1012.1mb 63f 57f
10:40 3.5ft  -  6s 4 7 mph 1012.4mb 63f 57f
10:30  -   -   -  4 7 mph 1012.3mb 63f 57f
10:20  -   -   -  4 7 mph 1012.5mb 63f 56f
10:10  -   -   -  7 13 mph 1012.5mb 63f 57f
10:00  -   -   -  9 11 mph 1012.4mb 63f 57f
9:50 3.5ft 15s 6s 7 11 mph 1012.4mb 63f 56f
9:40 3.5ft  -  6s 7 11 mph 1012.4mb 63f 56f
9:30  -   -   -  7 9 mph 1012.4mb 63f 56f
9:20  -   -   -  9 13 mph 1012.3mb 63f 56f
9:10  -   -   -  9 11 mph 1012.4mb 63f 56f
9:00  -   -   -  9 11 mph 1012.3mb 63f 56f
8:50 3.5ft 15s 6s 9 11 mph 1012.4mb 63f 56f
8:40 3.5ft  -  6s 9 11 mph 1012.4mb 63f 57f
8:30  -   -   -  9 13 mph 1012.3mb 63f 57f
8:20  -   -   -  9 11 mph 1012mb 63f 57f
8:10  -   -   -  9 11 mph 1012mb 63f 57f
8:00  -   -   -  11 13 mph 1012mb 63f 58f
7:50 3.5ft 15s 6s 7 11 mph 1012mb 63f 58f
7:40 3.5ft  -  6s 2 7 mph 1011.9mb 63f 58f
7:30  -   -   -  4 9 mph 1011.8mb 63f 58f
7:20  -   -   -  2 9 mph 1012mb 63f 58f
7:10  -   -   -  2 7 mph 1011.5mb 63f 57f
7:00  -   -   -   -  4 mph 1011.6mb 63f 57f
6:50 3.5ft 15s 6s 4 7 mph 1011.8mb 63f 57f
6:40  -   -   -  4 9 mph 1011.5mb 63f 57f
6:30  -   -   -  4 9 mph 1011.3mb 63f 58f
6:20  -   -   -   -  2 mph 1011.4mb 63f 58f
6:10  -   -   -  2 9 mph 1011.4mb 63f 57f
6:00  -   -   -   -  2 mph 1011.3mb 63f 57f
5:50 3ft 15s 6s 2 7 mph 1011.4mb 63f 57f
5:40  -   -   -  2 7 mph 1011.4mb 63f 57f
5:30  -   -   -  2 4 mph 1011.4mb 63f 57f
5:20  -   -   -  7 9 mph 1011.4mb 63f 57f
5:10  -   -   -  7 9 mph 1011.3mb 63f 57f
5:00  -   -   -  7 11 mph 1011.4mb 63f 57f
4:50 3.5ft 15s 6s 7 9 mph 1011.4mb 63f 58f
4:40 3.5ft  -  6s 4 9 mph 1011.1mb 63f 58f
4:30  -   -   -  7 9 mph 1011.4mb 63f 58f
4:20  -   -   -  7 9 mph 1011.5mb 63f 58f
4:10  -   -   -  2 7 mph 1011.4mb 63f 57f
4:00  -   -   -   -  2 mph 1011mb 63f 57f
3:50 3ft 15s 6s  -  2 mph 1011mb 63f 57f
3:40 3ft  -  6s 4 7 mph 1011.3mb 63f 57f
3:30  -   -   -  4 7 mph 1011.5mb 63f 57f
3:20  -   -   -  4 9 mph 1011.6mb 63f 57f
3:10  -   -   -  7 9 mph 1011.8mb 63f 57f
3:00  -   -   -  7 11 mph 1012.4mb - 57f
2:50 3.5ft 15s 5s 7 9 mph 1011.5mb 63f 57f
2:40 3.5ft  -  5s 4 7 mph 1011.8mb 63f 58f
2:30  -   -   -  4 9 mph 1011.8mb 63f 58f
2:20  -   -   -  4 7 mph 1011.8mb 63f 58f
2:10  -   -   -  4 7 mph 1011.9mb 63f 58f
2:00  -   -   -  2 7 mph 1012mb 63f 58f
1:50 3.5ft 14s 6s 2 4 mph 1012mb 63f 58f
1:40 3.5ft  -  6s 2 4 mph 1012mb 63f 58f
1:30  -   -   -  4 7 mph 1012.3mb 63f 58f
1:20  -   -   -  2 7 mph 1012.3mb 63f 59f
1:10  -   -   -  2 4 mph 1012.4mb 63f 59f
1:00  -   -   -  2 7 mph 1012.5mb 63f 59f
12:50 3.5ft 15s 6s 2 4 mph 1012.5mb 63f 59f
12:40 3.5ft  -  6s 2 4 mph 1012.8mb 63f 59f
12:30  -   -   -  4 7 mph 1012.8mb 63f 59f
12:20  -   -   -  4 7 mph 1012.6mb 63f 59f
12:10  -   -   -  4 7 mph 1012.6mb 63f 59f
12:00  -   -   -  4 7 mph 1012.8mb 63f 59f
mar. 05/23 11:50 3.5ft 15s 5s 2 7 mph 1012.6mb 63f 59f
11:40  -   -   -  4 7 mph 1012.5mb 63f 59f
11:30  -   -   -  4 7 mph 1012.6mb 63f 59f
11:20  -   -   -  2 7 mph 1012.8mb 63f 59f
11:10  -   -   -  4 7 mph 1012.8mb 63f 59f
11:00  -   -   -  4 9 mph 1012.6mb 63f 60f
10:50 4ft 15s 5s 7 7 mph 1012.8mb 63f 60f
10:40 4ft  -  5s 7 9 mph 1012.9mb 63f 60f
10:30  -   -   -  7 7 mph 1013mb 63f 60f
10:20  -   -   -  9 13 mph 1013mb 63f 60f
10:10  -   -   -  11 13 mph 1012.9mb 63f 60f
10:00  -   -   -  11 16 mph 1012.8mb 63f 60f
9:50 3.5ft 15s 5s 11 16 mph 1012.5mb 63f 60f
9:40  -   -   -  11 13 mph 1012.5mb 63f 60f
9:30  -   -   -  9 13 mph 1012.5mb 63f 60f
9:20  -   -   -  9 11 mph 1012.4mb 63f 60f
9:10  -   -   -  7 11 mph 1012.4mb 63f 60f
9:00  -   -   -  7 11 mph 1012.3mb 63f 60f
8:50 3.5ft 15s 5s 4 7 mph 1012.1mb 63f 59f
8:40  -   -   -  7 9 mph 1012mb 63f 60f
8:30  -   -   -  9 13 mph 1012mb 63f 60f
8:20  -   -   -  9 13 mph 1011.8mb 63f 60f
8:10  -   -   -  9 11 mph 1011.6mb 63f 60f
8:00  -   -   -  11 11 mph 1011.8mb - 59f
7:50 3.5ft 15s 5s 11 13 mph 1011.8mb 63f 59f
7:40  -   -   -  13 16 mph 1011.8mb 63f 60f
7:30  -   -   -  16 18 mph 1011.8mb 63f 60f
7:20  -   -   -  16 20 mph 1011.8mb 63f 60f
7:10  -   -   -  16 18 mph 1011.5mb 63f 60f
7:00  -   -   -  16 18 mph 1011.6mb 63f 59f
6:50 3.5ft 15s 5s 16 18 mph 1011.6mb 63f 59f
6:40 3.5ft  -  5s 16 18 mph 1011.5mb 63f 59f
6:30  -   -   -  16 18 mph 1011.6mb 63f 59f
6:20  -   -   -  13 18 mph 1011.6mb 63f 59f
6:10  -   -   -  16 18 mph 1011.9mb 63f 59f
6:00  -   -   -  16 18 mph 1012mb 63f 59f
5:50 3.5ft 14s 5s 16 20 mph 1012.1mb 63f 59f
5:40 3.5ft  -  5s 18 20 mph 1012.4mb 63f 59f
5:30  -   -   -  16 20 mph 1012.6mb 63f 59f
5:20  -   -   -  16 20 mph 1012.8mb 63f 59f
5:10  -   -   -  16 20 mph 1012.9mb 63f 59f
5:00  -   -   -  16 20 mph 1013.4mb 63f 60f
4:50 3.5ft 15s 5s 16 18 mph 1012.9mb 63f 59f
4:40 3.5ft  -  5s 16 18 mph 1012.9mb 63f 59f
4:20  -   -   -  13 18 mph 1013mb 63f 60f
4:10  -   -   -  13 16 mph 1013.1mb 63f 60f
4:00  -   -   -  13 16 mph 1013.5mb 63f 60f
3:50 3.5ft 15s 5s 16 18 mph 1013.6mb 63f 59f
3:40 3.5ft  -  5s 16 18 mph 1013.6mb 63f 58f
3:30  -   -   -  13 16 mph 1013.6mb 63f 58f
3:20  -   -   -  16 20 mph 1013.9mb 63f 58f
3:10  -   -   -  18 20 mph 1013.9mb 63f 57f
3:00  -   -   -  18 22 mph 1013.8mb 63f 57f
2:50 3.5ft 15s 5s 18 22 mph 1013.9mb 63f 58f
2:40  -   -   -  18 22 mph 1014mb 63f 58f
2:30  -   -   -  16 20 mph 1014.1mb - 58f
2:20  -   -   -  18 20 mph 1014.4mb 63f 58f
2:10  -   -   -  16 20 mph 1014.5mb 63f 58f
2:00  -   -   -  16 20 mph 1015.1mb 63f 58f
1:50 3ft 15s 5s 13 18 mph 1014.5mb 63f 59f
1:40 3ft  -  5s 13 18 mph 1014.6mb 63f 58f
1:30  -   -   -  13 18 mph 1014.5mb 63f 58f
1:20  -   -   -  13 18 mph 1014.5mb 63f 58f
1:10  -   -   -  11 16 mph 1014.9mb 63f 58f
1:00  -   -   -  13 18 mph 1015mb 63f 58f
12:50 2.5ft 15s 5s 13 16 mph 1015.1mb 63f 57f
12:40 2.5ft  -  5s 13 16 mph 1015.3mb 63f 57f
12:30  -   -   -  13 16 mph 1015.3mb 63f 57f
12:20  -   -   -  13 16 mph 1015.4mb 63f 57f
12:10  -   -   -  13 16 mph 1015.3mb 63f 57f
12:00  -   -   -  13 18 mph 1015.4mb 63f 57f
11:50 2.5ft 15s 6s 13 18 mph 1015.4mb 63f 57f
11:40 2.5ft  -  6s 16 18 mph 1015.5mb 63f 57f
11:30  -   -   -  13 16 mph 1015.5mb 63f 57f
11:20  -   -   -  13 18 mph 1015.5mb 63f 58f
11:10  -   -   -  13 18 mph 1015.5mb 63f 58f
11:00  -   -   -  13 18 mph 1015.5mb - 58f
10:50 2.5ft 15s 6s 13 16 mph 1015.4mb 63f 58f
10:40 2.5ft  -  6s 13 16 mph 1015.4mb 63f 58f
10:30  -   -   -  9 11 mph 1015.1mb 63f 58f
10:20  -   -   -  9 11 mph 1015mb 63f 58f
10:10  -   -   -  9 11 mph 1015mb 63f 58f
10:00  -   -   -  9 11 mph 1014.9mb 63f 58f
9:50 2.5ft 15s 6s 4 7 mph 1014.6mb 63f 58f
9:40  -   -   -  7 9 mph 1014.5mb 63f 58f
9:30  -   -   -  4 7 mph 1014.3mb 63f 58f
9:20  -   -   -  7 9 mph 1014.3mb 63f 58f
9:10  -   -   -  7 9 mph 1014mb 63f 58f
9:00  -   -   -  4 7 mph 1014mb 63f 58f
8:50 3ft 15s 6s 4 7 mph 1014.1mb 63f 58f
8:40 3ft  -  6s 4 7 mph 1014.1mb 63f 58f
8:30  -   -   -  4 9 mph 1014mb 63f 58f
8:20  -   -   -  2 4 mph 1014.1mb 63f 58f
8:10  -   -   -  2 4 mph 1014mb 63f 58f
8:00  -   -   -  2 4 mph 1014mb 63f 58f
7:50 3.5ft 15s 7s 2 4 mph 1014mb 63f 58f
7:40 3.5ft  -  7s 4 7 mph 1014mb 63f 57f
7:30  -   -   -  2 4 mph 1014mb 63f 57f
7:20  -   -   -  2 7 mph 1014mb 63f 57f
7:10  -   -   -  2 4 mph 1014mb 63f 57f
7:00  -   -   -  4 7 mph 1014mb 63f 56f
6:50 3.5ft 15s 6s 4 9 mph 1013.9mb 63f 56f
6:40  -   -   -  4 7 mph 1013.9mb 63f 56f
6:30  -   -   -  4 9 mph 1013.9mb 63f 56f
6:20  -   -   -  4 9 mph 1014mb 63f 56f
6:10  -   -   -  4 7 mph 1014mb 63f 56f
6:00  -   -   -  4 7 mph 1014mb 63f 56f
5:50 3.5ft 15s 6s 4 7 mph 1014mb 63f 56f
5:40  -   -   -  4 7 mph 1014mb 62f 56f
5:30  -   -   -  2 7 mph 1013.9mb 62f 56f
5:20  -   -   -  4 7 mph 1014mb 62f 56f
5:10  -   -   -  2 4 mph 1013.9mb 62f 56f
5:00  -   -   -  2 7 mph 1013.9mb 62f 56f
4:50 3.5ft 15s 6s  -  2 mph 1013.8mb 62f 56f
4:40  -   -   -  2 4 mph 1013.8mb 62f 56f
4:30  -   -   -  2 4 mph 1013.8mb 62f 56f
4:20  -   -   -  2 4 mph 1013.8mb 62f 56f
4:10  -   -   -  2 7 mph 1013.8mb 62f 56f
4:00  -   -   -  4 7 mph 1013.8mb 62f 56f
3:50 3.5ft 16s 6s 2 7 mph 1013.8mb 62f 55f
3:40 3.5ft  -  6s 4 7 mph 1013.6mb 62f 55f
3:30  -   -   -  4 7 mph 1013.8mb 62f 55f
3:20  -   -   -  4 7 mph 1013.8mb 62f 55f
3:10  -   -   -  7 9 mph 1013.9mb 62f 55f
3:00  -   -   -  7 11 mph 1013.9mb - 56f
2:50 3.5ft 15s 5s 7 9 mph 1014mb 62f 56f
2:40 3.5ft  -  5s 7 9 mph 1014mb 63f 56f
2:30  -   -   -  9 11 mph 1014mb 63f 57f
2:20  -   -   -  7 9 mph 1014mb 63f 57f
2:10  -   -   -  7 9 mph 1014mb 63f 58f
2:00  -   -   -  7 11 mph 1014mb 63f 57f
1:50 3.5ft 15s 5s 4 7 mph 1014.1mb 63f 57f
1:40 3.5ft  -  5s 4 11 mph 1014.3mb 63f 57f
1:30  -   -   -  4 9 mph 1015mb 63f 57f
1:20  -   -   -  4 7 mph 1014.3mb 63f 57f
1:10  -   -   -  4 9 mph 1014.5mb 63f 57f
1:00  -   -   -  4 7 mph 1014.5mb 63f 56f
12:50 3.5ft 15s 6s 7 9 mph 1014.6mb 63f 57f
12:40 3.5ft  -  6s 7 9 mph 1014.8mb 63f 57f
12:30  -   -   -  7 11 mph 1014.9mb 63f 57f
12:20  -   -   -  9 13 mph 1014.8mb 63f 57f
12:10  -   -   -  11 13 mph 1014.8mb - 57f
12:00  -   -   -  11 13 mph 1014.6mb 63f 57f
lun. 05/22 11:50 3.5ft 15s 5s 9 13 mph 1014.5mb 63f 58f
11:40  -   -   -  7 9 mph 1014.5mb 63f 58f
11:30  -   -   -  7 11 mph 1014.6mb 63f 58f
11:20  -   -   -  7 11 mph 1014.5mb 63f 59f
11:10  -   -   -  4 7 mph 1014.5mb 63f 60f
11:00  -   -   -  4 9 mph 1014.4mb 63f 60f
10:50 3.5ft 16s 5s 4 9 mph 1014.4mb 63f 60f
10:40  -   -   -  4 9 mph 1014.3mb 63f 60f
10:30  -   -   -  4 9 mph 1014mb 63f 60f
10:20  -   -   -  2 2 mph 1014mb - 60f
10:10  -   -   -  2 4 mph 1014mb 63f 60f
10:00  -   -   -   -  2 mph 1014mb 63f 60f
9:50 3.5ft 16s 5s 2 4 mph 1014mb 63f 60f
9:40 3.5ft  -  5s 2 4 mph 1013.9mb 63f 60f
9:30  -   -   -  4 7 mph 1013.8mb 63f 60f
9:20  -   -   -  4 7 mph 1013.5mb - 59f
9:10  -   -   -  4 7 mph 1013.5mb 63f 59f
9:00  -   -   -  4 7 mph 1013.5mb 63f 59f